sensor_id;sensor_type;location;lat;lon;timestamp;noise_LAeq;noise_LA_min;noise_LA_max;noise_LA01;noise_LA95
72160;Laerm;60045;51.792;10.938;2023-04-15T00:02:15;28.33;26.91;34.28;;
72160;Laerm;60045;51.792;10.938;2023-04-15T00:04:42;29.94;27.15;42.33;;
72160;Laerm;60045;51.792;10.938;2023-04-15T00:07:08;29.40;27.58;39.75;;
72160;Laerm;60045;51.792;10.938;2023-04-15T00:09:35;29.51;27.82;33.97;;
72160;Laerm;60045;51.792;10.938;2023-04-15T00:12:01;32.70;28.41;48.24;;
72160;Laerm;60045;51.792;10.938;2023-04-15T00:14:27;52.02;28.20;67.59;;
72160;Laerm;60045;51.792;10.938;2023-04-15T00:16:54;32.23;27.76;46.51;;
72160;Laerm;60045;51.792;10.938;2023-04-15T00:19:22;29.20;27.49;37.42;;
72160;Laerm;60045;51.792;10.938;2023-04-15T00:21:49;29.04;27.42;35.03;;
72160;Laerm;60045;51.792;10.938;2023-04-15T00:24:15;29.00;27.38;39.16;;
72160;Laerm;60045;51.792;10.938;2023-04-15T00:26:41;28.84;27.40;31.81;;
72160;Laerm;60045;51.792;10.938;2023-04-15T00:29:08;53.05;27.64;73.06;;
72160;Laerm;60045;51.792;10.938;2023-04-15T00:31:34;29.77;28.14;35.92;;
72160;Laerm;60045;51.792;10.938;2023-04-15T00:34:00;30.16;28.10;35.81;;
72160;Laerm;60045;51.792;10.938;2023-04-15T00:36:29;31.34;28.40;40.91;;
72160;Laerm;60045;51.792;10.938;2023-04-15T00:38:55;43.51;27.74;61.43;;
72160;Laerm;60045;51.792;10.938;2023-04-15T00:41:21;50.32;28.05;66.47;;
72160;Laerm;60045;51.792;10.938;2023-04-15T00:43:48;32.29;28.34;47.89;;
72160;Laerm;60045;51.792;10.938;2023-04-15T00:46:14;32.91;28.21;47.52;;
72160;Laerm;60045;51.792;10.938;2023-04-15T00:48:41;30.82;28.30;46.99;;
72160;Laerm;60045;51.792;10.938;2023-04-15T00:51:07;30.69;28.86;43.57;;
72160;Laerm;60045;51.792;10.938;2023-04-15T00:53:34;32.80;29.61;52.24;;
72160;Laerm;60045;51.792;10.938;2023-04-15T00:56:01;50.79;29.41;70.17;;
72160;Laerm;60045;51.792;10.938;2023-04-15T00:58:27;33.09;29.90;45.07;;
72160;Laerm;60045;51.792;10.938;2023-04-15T01:00:54;35.44;31.66;51.74;;
72160;Laerm;60045;51.792;10.938;2023-04-15T01:03:20;36.53;32.40;50.68;;
72160;Laerm;60045;51.792;10.938;2023-04-15T01:05:46;36.58;31.76;51.18;;
72160;Laerm;60045;51.792;10.938;2023-04-15T01:08:13;60.35;32.13;81.60;;
72160;Laerm;60045;51.792;10.938;2023-04-15T01:10:40;34.67;31.23;50.29;;
72160;Laerm;60045;51.792;10.938;2023-04-15T01:13:07;35.21;31.66;52.14;;
72160;Laerm;60045;51.792;10.938;2023-04-15T01:15:33;36.05;31.86;53.48;;
72160;Laerm;60045;51.792;10.938;2023-04-15T01:18:00;35.67;32.13;45.70;;
72160;Laerm;60045;51.792;10.938;2023-04-15T01:20:27;34.55;30.14;45.69;;
72160;Laerm;60045;51.792;10.938;2023-04-15T01:22:54;33.65;30.39;42.74;;
72160;Laerm;60045;51.792;10.938;2023-04-15T01:25:25;32.37;29.66;40.33;;
72160;Laerm;60045;51.792;10.938;2023-04-15T01:27:52;34.88;30.63;51.77;;
72160;Laerm;60045;51.792;10.938;2023-04-15T01:30:18;61.47;31.40;78.63;;
72160;Laerm;60045;51.792;10.938;2023-04-15T01:32:45;41.09;32.01;52.50;;
72160;Laerm;60045;51.792;10.938;2023-04-15T01:35:11;38.35;32.36;53.33;;
72160;Laerm;60045;51.792;10.938;2023-04-15T01:37:38;39.35;34.05;57.53;;
72160;Laerm;60045;51.792;10.938;2023-04-15T01:40:05;40.62;33.84;55.57;;
72160;Laerm;60045;51.792;10.938;2023-04-15T01:42:35;62.30;37.46;80.08;;
72160;Laerm;60045;51.792;10.938;2023-04-15T01:45:01;42.98;36.67;56.56;;
72160;Laerm;60045;51.792;10.938;2023-04-15T01:47:28;39.97;35.10;52.74;;
72160;Laerm;60045;51.792;10.938;2023-04-15T01:49:54;38.92;34.47;50.75;;
72160;Laerm;60045;51.792;10.938;2023-04-15T01:52:21;38.70;33.96;50.31;;
72160;Laerm;60045;51.792;10.938;2023-04-15T01:54:47;37.29;33.24;55.38;;
72160;Laerm;60045;51.792;10.938;2023-04-15T01:57:13;39.12;32.89;48.35;;
72160;Laerm;60045;51.792;10.938;2023-04-15T01:59:41;54.31;33.84;71.06;;
72160;Laerm;60045;51.792;10.938;2023-04-15T02:02:07;39.42;34.52;53.05;;
72160;Laerm;60045;51.792;10.938;2023-04-15T02:04:33;37.30;32.59;50.21;;
72160;Laerm;60045;51.792;10.938;2023-04-15T02:06:59;35.13;30.67;49.04;;
72160;Laerm;60045;51.792;10.938;2023-04-15T02:09:26;34.42;30.18;46.01;;
72160;Laerm;60045;51.792;10.938;2023-04-15T02:11:52;33.62;30.30;46.71;;
72160;Laerm;60045;51.792;10.938;2023-04-15T02:14:18;33.26;29.39;48.14;;
72160;Laerm;60045;51.792;10.938;2023-04-15T02:16:46;32.48;29.34;47.24;;
72160;Laerm;60045;51.792;10.938;2023-04-15T02:19:12;32.43;29.53;48.01;;
72160;Laerm;60045;51.792;10.938;2023-04-15T02:21:39;53.32;29.72;70.48;;
72160;Laerm;60045;51.792;10.938;2023-04-15T02:24:05;35.28;31.34;47.77;;
72160;Laerm;60045;51.792;10.938;2023-04-15T02:26:31;34.61;30.29;47.78;;
72160;Laerm;60045;51.792;10.938;2023-04-15T02:28:58;33.41;30.06;50.00;;
72160;Laerm;60045;51.792;10.938;2023-04-15T02:31:24;32.87;29.28;47.17;;
72160;Laerm;60045;51.792;10.938;2023-04-15T02:33:52;32.21;28.98;46.43;;
72160;Laerm;60045;51.792;10.938;2023-04-15T02:36:18;32.36;29.06;46.79;;
72160;Laerm;60045;51.792;10.938;2023-04-15T02:38:45;34.62;28.49;47.73;;
72160;Laerm;60045;51.792;10.938;2023-04-15T02:41:11;51.33;30.21;67.68;;
72160;Laerm;60045;51.792;10.938;2023-04-15T02:43:37;33.67;29.80;49.22;;
72160;Laerm;60045;51.792;10.938;2023-04-15T02:46:04;62.60;30.04;77.76;;
72160;Laerm;60045;51.792;10.938;2023-04-15T02:48:30;55.66;31.00;72.94;;
72160;Laerm;60045;51.792;10.938;2023-04-15T02:51:11;36.34;31.03;51.90;;
72160;Laerm;60045;51.792;10.938;2023-04-15T02:53:37;34.95;29.92;58.62;;
72160;Laerm;60045;51.792;10.938;2023-04-15T02:56:03;35.20;30.46;53.50;;
72160;Laerm;60045;51.792;10.938;2023-04-15T02:58:30;38.29;31.97;53.79;;
72160;Laerm;60045;51.792;10.938;2023-04-15T03:00:56;50.44;31.77;67.33;;
72160;Laerm;60045;51.792;10.938;2023-04-15T03:03:23;35.56;31.09;49.45;;
72160;Laerm;60045;51.792;10.938;2023-04-15T03:05:49;53.82;32.48;70.81;;
72160;Laerm;60045;51.792;10.938;2023-04-15T03:08:16;35.03;30.19;46.56;;
72160;Laerm;60045;51.792;10.938;2023-04-15T03:10:43;55.27;30.72;73.40;;
72160;Laerm;60045;51.792;10.938;2023-04-15T03:13:09;35.47;31.18;46.88;;
72160;Laerm;60045;51.792;10.938;2023-04-15T03:15:35;49.70;30.84;66.50;;
72160;Laerm;60045;51.792;10.938;2023-04-15T03:18:01;55.42;31.33;73.34;;
72160;Laerm;60045;51.792;10.938;2023-04-15T03:20:27;55.47;31.14;72.78;;
72160;Laerm;60045;51.792;10.938;2023-04-15T03:22:54;52.77;34.07;71.68;;
72160;Laerm;60045;51.792;10.938;2023-04-15T03:25:21;51.98;34.11;68.08;;
72160;Laerm;60045;51.792;10.938;2023-04-15T03:27:48;58.58;34.71;73.41;;
72160;Laerm;60045;51.792;10.938;2023-04-15T03:30:14;46.45;34.34;61.87;;
72160;Laerm;60045;51.792;10.938;2023-04-15T03:32:40;48.43;33.36;64.40;;
72160;Laerm;60045;51.792;10.938;2023-04-15T03:35:06;60.21;36.16;76.50;;
72160;Laerm;60045;51.792;10.938;2023-04-15T03:37:33;55.30;35.82;69.95;;
72160;Laerm;60045;51.792;10.938;2023-04-15T03:39:59;50.94;37.16;65.16;;
72160;Laerm;60045;51.792;10.938;2023-04-15T03:42:27;52.20;38.87;64.83;;
72160;Laerm;60045;51.792;10.938;2023-04-15T03:44:53;54.67;39.27;68.64;;
72160;Laerm;60045;51.792;10.938;2023-04-15T03:47:19;50.63;40.39;66.22;;
72160;Laerm;60045;51.792;10.938;2023-04-15T03:49:46;55.00;42.17;69.83;;
72160;Laerm;60045;51.792;10.938;2023-04-15T03:52:12;54.33;42.93;68.73;;
72160;Laerm;60045;51.792;10.938;2023-04-15T03:54:38;56.06;42.88;71.30;;
72160;Laerm;60045;51.792;10.938;2023-04-15T03:57:04;51.58;42.42;64.72;;
72160;Laerm;60045;51.792;10.938;2023-04-15T03:59:32;51.95;41.34;63.10;;
72160;Laerm;60045;51.792;10.938;2023-04-15T04:01:58;50.52;42.60;61.99;;
72160;Laerm;60045;51.792;10.938;2023-04-15T04:04:25;59.19;43.38;77.08;;
72160;Laerm;60045;51.792;10.938;2023-04-15T04:06:51;56.43;44.71;69.99;;
72160;Laerm;60045;51.792;10.938;2023-04-15T04:09:17;52.41;43.51;61.13;;
72160;Laerm;60045;51.792;10.938;2023-04-15T04:11:43;57.64;44.13;74.40;;
72160;Laerm;60045;51.792;10.938;2023-04-15T04:14:10;51.25;42.24;60.97;;
72160;Laerm;60045;51.792;10.938;2023-04-15T04:16:38;51.29;41.83;59.46;;
72160;Laerm;60045;51.792;10.938;2023-04-15T04:19:04;64.70;43.27;80.95;;
72160;Laerm;60045;51.792;10.938;2023-04-15T04:21:30;58.40;42.66;70.93;;
72160;Laerm;60045;51.792;10.938;2023-04-15T04:23:58;58.01;41.96;72.64;;
72160;Laerm;60045;51.792;10.938;2023-04-15T04:26:24;57.97;39.95;75.03;;
72160;Laerm;60045;51.792;10.938;2023-04-15T04:28:51;56.60;41.04;69.42;;
72160;Laerm;60045;51.792;10.938;2023-04-15T04:31:17;65.13;39.64;81.45;;
72160;Laerm;60045;51.792;10.938;2023-04-15T04:33:44;65.53;39.24;81.55;;
72160;Laerm;60045;51.792;10.938;2023-04-15T04:36:11;58.69;39.05;75.78;;
72160;Laerm;60045;51.792;10.938;2023-04-15T04:38:37;55.51;37.98;70.98;;
72160;Laerm;60045;51.792;10.938;2023-04-15T04:41:03;49.98;35.96;62.62;;
72160;Laerm;60045;51.792;10.938;2023-04-15T04:43:29;49.14;37.16;62.63;;
72160;Laerm;60045;51.792;10.938;2023-04-15T04:45:56;57.92;37.21;75.20;;
72160;Laerm;60045;51.792;10.938;2023-04-15T04:48:22;58.40;37.18;73.16;;
72160;Laerm;60045;51.792;10.938;2023-04-15T04:50:49;62.52;36.33;77.71;;
72160;Laerm;60045;51.792;10.938;2023-04-15T04:53:16;54.17;34.77;71.63;;
72160;Laerm;60045;51.792;10.938;2023-04-15T04:55:42;59.85;36.10;74.88;;
72160;Laerm;60045;51.792;10.938;2023-04-15T04:58:08;55.45;37.66;73.01;;
72160;Laerm;60045;51.792;10.938;2023-04-15T05:00:34;46.85;36.19;60.40;;
72160;Laerm;60045;51.792;10.938;2023-04-15T05:03:01;46.74;35.77;60.51;;
72160;Laerm;60045;51.792;10.938;2023-04-15T05:05:28;50.07;35.56;66.89;;
72160;Laerm;60045;51.792;10.938;2023-04-15T05:07:55;60.44;36.38;74.12;;
72160;Laerm;60045;51.792;10.938;2023-04-15T05:10:21;57.35;34.92;72.22;;
72160;Laerm;60045;51.792;10.938;2023-04-15T05:12:48;52.58;35.16;70.05;;
72160;Laerm;60045;51.792;10.938;2023-04-15T05:15:14;56.46;36.33;71.15;;
72160;Laerm;60045;51.792;10.938;2023-04-15T05:17:40;52.31;36.79;67.13;;
72160;Laerm;60045;51.792;10.938;2023-04-15T05:20:07;49.16;36.83;63.84;;
72160;Laerm;60045;51.792;10.938;2023-04-15T05:22:33;66.31;38.09;82.29;;
72160;Laerm;60045;51.792;10.938;2023-04-15T05:25:01;49.91;37.72;63.51;;
72160;Laerm;60045;51.792;10.938;2023-04-15T05:27:27;46.90;36.94;60.59;;
72160;Laerm;60045;51.792;10.938;2023-04-15T05:29:53;65.84;36.79;83.51;;
72160;Laerm;60045;51.792;10.938;2023-04-15T05:32:20;47.83;35.89;60.49;;
72160;Laerm;60045;51.792;10.938;2023-04-15T05:34:46;61.13;35.93;77.33;;
72160;Laerm;60045;51.792;10.938;2023-04-15T05:37:13;58.01;36.75;72.87;;
72160;Laerm;60045;51.792;10.938;2023-04-15T05:39:39;62.57;37.53;78.86;;
72160;Laerm;60045;51.792;10.938;2023-04-15T05:42:07;66.39;38.84;81.97;;
72160;Laerm;60045;51.792;10.938;2023-04-15T05:44:33;53.16;40.32;69.74;;
72160;Laerm;60045;51.792;10.938;2023-04-15T05:47:00;55.49;39.80;70.93;;
72160;Laerm;60045;51.792;10.938;2023-04-15T05:49:27;63.15;39.84;79.47;;
72160;Laerm;60045;51.792;10.938;2023-04-15T05:51:53;56.40;40.03;73.78;;
72160;Laerm;60045;51.792;10.938;2023-04-15T05:54:20;61.05;38.25;74.66;;
72160;Laerm;60045;51.792;10.938;2023-04-15T05:56:47;58.28;38.35;77.05;;
72160;Laerm;60045;51.792;10.938;2023-04-15T05:59:14;64.20;38.79;84.85;;
72160;Laerm;60045;51.792;10.938;2023-04-15T06:01:41;48.00;38.98;64.01;;
72160;Laerm;60045;51.792;10.938;2023-04-15T06:04:07;48.64;38.36;60.16;;
72160;Laerm;60045;51.792;10.938;2023-04-15T06:06:33;60.90;39.48;74.95;;
72160;Laerm;60045;51.792;10.938;2023-04-15T06:09:00;59.77;40.08;75.44;;
72160;Laerm;60045;51.792;10.938;2023-04-15T06:11:26;61.54;39.11;74.03;;
72160;Laerm;60045;51.792;10.938;2023-04-15T06:13:52;58.77;39.58;72.59;;
72160;Laerm;60045;51.792;10.938;2023-04-15T06:16:20;46.48;39.16;65.84;;
72160;Laerm;60045;51.792;10.938;2023-04-15T06:18:47;68.22;42.26;82.71;;
72160;Laerm;60045;51.792;10.938;2023-04-15T06:21:13;59.48;42.09;78.45;;
72160;Laerm;60045;51.792;10.938;2023-04-15T06:23:39;64.15;42.24;76.44;;
72160;Laerm;60045;51.792;10.938;2023-04-15T06:26:06;60.90;41.06;76.27;;
72160;Laerm;60045;51.792;10.938;2023-04-15T06:28:32;61.36;43.17;77.24;;
72160;Laerm;60045;51.792;10.938;2023-04-15T06:30:58;65.87;42.31;82.75;;
72160;Laerm;60045;51.792;10.938;2023-04-15T06:33:26;64.42;40.58;80.68;;
72160;Laerm;60045;51.792;10.938;2023-04-15T06:35:53;60.45;44.39;75.58;;
72160;Laerm;60045;51.792;10.938;2023-04-15T06:38:19;66.28;44.96;81.77;;
72160;Laerm;60045;51.792;10.938;2023-04-15T06:40:45;61.03;44.59;74.82;;
72160;Laerm;60045;51.792;10.938;2023-04-15T06:43:11;62.34;44.05;77.86;;
72160;Laerm;60045;51.792;10.938;2023-04-15T06:45:38;59.16;39.40;77.55;;
72160;Laerm;60045;51.792;10.938;2023-04-15T06:48:04;63.75;39.43;75.69;;
72160;Laerm;60045;51.792;10.938;2023-04-15T06:50:32;55.24;36.40;71.29;;
72160;Laerm;60045;51.792;10.938;2023-04-15T06:52:59;57.27;36.79;71.80;;
72160;Laerm;60045;51.792;10.938;2023-04-15T06:55:26;66.51;39.11;80.44;;
72160;Laerm;60045;51.792;10.938;2023-04-15T06:57:52;60.55;39.07;74.99;;
72160;Laerm;60045;51.792;10.938;2023-04-15T07:00:18;60.93;40.41;76.14;;
72160;Laerm;60045;51.792;10.938;2023-04-15T07:02:45;61.66;40.23;76.13;;
72160;Laerm;60045;51.792;10.938;2023-04-15T07:05:11;58.14;40.58;73.95;;
72160;Laerm;60045;51.792;10.938;2023-04-15T07:07:39;55.58;39.72;72.61;;
72160;Laerm;60045;51.792;10.938;2023-04-15T07:10:06;62.88;40.20;84.86;;
72160;Laerm;60045;51.792;10.938;2023-04-15T07:12:33;57.04;37.16;81.50;;
72160;Laerm;60045;51.792;10.938;2023-04-15T07:14:59;58.82;38.09;75.75;;
72160;Laerm;60045;51.792;10.938;2023-04-15T07:17:26;63.36;41.42;78.14;;
72160;Laerm;60045;51.792;10.938;2023-04-15T07:19:52;64.10;39.83;75.94;;
72160;Laerm;60045;51.792;10.938;2023-04-15T07:22:18;58.10;37.82;72.54;;
72160;Laerm;60045;51.792;10.938;2023-04-15T07:24:46;63.37;36.42;77.83;;
72160;Laerm;60045;51.792;10.938;2023-04-15T07:27:12;57.89;38.57;73.40;;
72160;Laerm;60045;51.792;10.938;2023-04-15T07:29:39;63.07;38.58;76.45;;
72160;Laerm;60045;51.792;10.938;2023-04-15T07:32:05;61.25;38.36;75.89;;
72160;Laerm;60045;51.792;10.938;2023-04-15T07:34:31;63.97;41.78;75.32;;
72160;Laerm;60045;51.792;10.938;2023-04-15T07:36:57;67.52;39.29;84.45;;
72160;Laerm;60045;51.792;10.938;2023-04-15T07:39:24;65.64;40.13;79.99;;
72160;Laerm;60045;51.792;10.938;2023-04-15T07:41:51;63.97;38.59;76.41;;
72160;Laerm;60045;51.792;10.938;2023-04-15T07:44:18;67.14;40.53;79.88;;
72160;Laerm;60045;51.792;10.938;2023-04-15T07:46:44;63.97;39.36;79.72;;
72160;Laerm;60045;51.792;10.938;2023-04-15T07:49:10;65.12;37.42;81.32;;
72160;Laerm;60045;51.792;10.938;2023-04-15T07:51:37;60.18;35.34;73.57;;
72160;Laerm;60045;51.792;10.938;2023-04-15T07:54:03;61.36;37.12;73.19;;
72160;Laerm;60045;51.792;10.938;2023-04-15T07:56:29;61.06;35.66;72.49;;
72160;Laerm;60045;51.792;10.938;2023-04-15T07:58:57;62.47;36.30;76.51;;
72160;Laerm;60045;51.792;10.938;2023-04-15T08:01:26;61.84;38.01;73.77;;
72160;Laerm;60045;51.792;10.938;2023-04-15T08:03:52;64.90;36.18;78.00;;
72160;Laerm;60045;51.792;10.938;2023-04-15T08:06:19;61.96;39.23;73.71;;
72160;Laerm;60045;51.792;10.938;2023-04-15T08:08:45;63.75;37.22;76.99;;
72160;Laerm;60045;51.792;10.938;2023-04-15T08:11:12;63.15;38.74;74.91;;
72160;Laerm;60045;51.792;10.938;2023-04-15T08:13:38;59.58;36.39;76.15;;
72160;Laerm;60045;51.792;10.938;2023-04-15T08:16:14;62.41;35.95;74.66;;
72160;Laerm;60045;51.792;10.938;2023-04-15T08:18:40;60.82;36.07;74.87;;
72160;Laerm;60045;51.792;10.938;2023-04-15T08:21:06;63.39;37.84;75.31;;
72160;Laerm;60045;51.792;10.938;2023-04-15T08:23:33;60.79;39.50;75.76;;
72160;Laerm;60045;51.792;10.938;2023-04-15T08:25:59;63.84;40.03;75.31;;
72160;Laerm;60045;51.792;10.938;2023-04-15T08:28:26;63.60;36.14;75.12;;
72160;Laerm;60045;51.792;10.938;2023-04-15T08:30:52;64.05;39.43;74.62;;
72160;Laerm;60045;51.792;10.938;2023-04-15T08:33:20;61.06;36.85;71.24;;
72160;Laerm;60045;51.792;10.938;2023-04-15T08:35:47;65.89;41.42;80.11;;
72160;Laerm;60045;51.792;10.938;2023-04-15T08:38:13;62.99;36.74;76.08;;
72160;Laerm;60045;51.792;10.938;2023-04-15T08:40:40;59.84;36.98;72.42;;
72160;Laerm;60045;51.792;10.938;2023-04-15T08:43:07;59.71;35.52;74.43;;
72160;Laerm;60045;51.792;10.938;2023-04-15T08:45:34;63.82;34.39;73.70;;
72160;Laerm;60045;51.792;10.938;2023-04-15T08:48:03;60.89;34.68;73.88;;
72160;Laerm;60045;51.792;10.938;2023-04-15T08:50:31;64.78;40.81;75.40;;
72160;Laerm;60045;51.792;10.938;2023-04-15T08:52:58;59.63;35.10;73.22;;
72160;Laerm;60045;51.792;10.938;2023-04-15T08:55:25;59.37;34.93;72.86;;
72160;Laerm;60045;51.792;10.938;2023-04-15T08:57:54;63.51;36.44;76.31;;
72160;Laerm;60045;51.792;10.938;2023-04-15T09:00:21;62.36;37.06;73.94;;
72160;Laerm;60045;51.792;10.938;2023-04-15T09:02:47;61.76;37.07;74.40;;
72160;Laerm;60045;51.792;10.938;2023-04-15T09:05:14;63.14;37.47;74.65;;
72160;Laerm;60045;51.792;10.938;2023-04-15T09:07:41;63.49;37.08;76.58;;
72160;Laerm;60045;51.792;10.938;2023-04-15T09:10:08;58.88;36.98;71.45;;
72160;Laerm;60045;51.792;10.938;2023-04-15T09:12:34;65.22;40.80;81.35;;
72160;Laerm;60045;51.792;10.938;2023-04-15T09:15:01;64.00;35.47;77.54;;
72160;Laerm;60045;51.792;10.938;2023-04-15T09:17:27;50.32;32.20;66.67;;
72160;Laerm;60045;51.792;10.938;2023-04-15T09:20:06;61.31;35.30;74.30;;
72160;Laerm;60045;51.792;10.938;2023-04-15T09:22:32;60.46;34.42;75.20;;
72160;Laerm;60045;51.792;10.938;2023-04-15T09:25:01;66.51;36.76;82.79;;
72160;Laerm;60045;51.792;10.938;2023-04-15T09:27:27;65.85;39.05;81.26;;
72160;Laerm;60045;51.792;10.938;2023-04-15T09:29:54;62.49;40.76;75.21;;
72160;Laerm;60045;51.792;10.938;2023-04-15T09:32:20;61.53;38.72;73.90;;
72160;Laerm;60045;51.792;10.938;2023-04-15T09:34:48;57.25;37.23;71.80;;
72160;Laerm;60045;51.792;10.938;2023-04-15T09:37:14;64.94;37.96;82.03;;
72160;Laerm;60045;51.792;10.938;2023-04-15T09:39:44;63.22;39.18;77.51;;
72160;Laerm;60045;51.792;10.938;2023-04-15T09:42:13;54.95;37.21;69.60;;
72160;Laerm;60045;51.792;10.938;2023-04-15T09:44:41;62.79;39.11;73.63;;
72160;Laerm;60045;51.792;10.938;2023-04-15T09:47:07;60.95;36.58;74.64;;
72160;Laerm;60045;51.792;10.938;2023-04-15T09:49:34;58.84;36.32;74.78;;
72160;Laerm;60045;51.792;10.938;2023-04-15T09:52:00;58.44;32.65;72.72;;
72160;Laerm;60045;51.792;10.938;2023-04-15T09:54:32;61.41;36.03;76.39;;
72160;Laerm;60045;51.792;10.938;2023-04-15T09:57:03;60.04;36.33;73.78;;
72160;Laerm;60045;51.792;10.938;2023-04-15T09:59:31;61.62;36.65;72.91;;
72160;Laerm;60045;51.792;10.938;2023-04-15T10:01:57;56.14;33.31;73.25;;
72160;Laerm;60045;51.792;10.938;2023-04-15T10:04:25;59.97;33.34;75.67;;
72160;Laerm;60045;51.792;10.938;2023-04-15T10:06:52;57.53;33.83;74.67;;
72160;Laerm;60045;51.792;10.938;2023-04-15T10:09:18;63.49;37.24;73.93;;
72160;Laerm;60045;51.792;10.938;2023-04-15T10:11:45;59.91;36.13;74.11;;
72160;Laerm;60045;51.792;10.938;2023-04-15T10:14:13;62.15;37.07;75.38;;
72160;Laerm;60045;51.792;10.938;2023-04-15T10:16:41;58.39;32.56;72.79;;
72160;Laerm;60045;51.792;10.938;2023-04-15T10:19:07;63.24;38.26;78.81;;
72160;Laerm;60045;51.792;10.938;2023-04-15T10:21:34;63.72;35.97;79.91;;
72160;Laerm;60045;51.792;10.938;2023-04-15T10:24:02;61.37;33.50;74.93;;
72160;Laerm;60045;51.792;10.938;2023-04-15T10:26:28;58.51;33.39;73.68;;
72160;Laerm;60045;51.792;10.938;2023-04-15T10:28:55;65.07;33.53;79.11;;
72160;Laerm;60045;51.792;10.938;2023-04-15T10:31:22;62.78;38.07;75.87;;
72160;Laerm;60045;51.792;10.938;2023-04-15T10:33:50;60.11;37.52;72.31;;
72160;Laerm;60045;51.792;10.938;2023-04-15T10:36:18;59.46;36.08;78.63;;
72160;Laerm;60045;51.792;10.938;2023-04-15T10:38:44;58.50;32.12;73.14;;
72160;Laerm;60045;51.792;10.938;2023-04-15T10:41:11;59.65;33.68;72.80;;
72160;Laerm;60045;51.792;10.938;2023-04-15T10:43:38;59.70;34.42;76.74;;
72160;Laerm;60045;51.792;10.938;2023-04-15T10:46:04;62.27;36.91;73.27;;
72160;Laerm;60045;51.792;10.938;2023-04-15T10:48:31;60.58;36.45;72.79;;
72160;Laerm;60045;51.792;10.938;2023-04-15T10:50:59;59.18;34.45;71.82;;
72160;Laerm;60045;51.792;10.938;2023-04-15T10:53:26;60.68;35.42;73.70;;
72160;Laerm;60045;51.792;10.938;2023-04-15T10:55:53;57.64;35.54;72.43;;
72160;Laerm;60045;51.792;10.938;2023-04-15T10:58:22;61.91;38.15;73.31;;
72160;Laerm;60045;51.792;10.938;2023-04-15T11:00:49;63.45;35.62;76.36;;
72160;Laerm;60045;51.792;10.938;2023-04-15T11:03:16;60.55;37.43;75.75;;
72160;Laerm;60045;51.792;10.938;2023-04-15T11:05:50;64.38;39.33;75.34;;
72160;Laerm;60045;51.792;10.938;2023-04-15T11:08:18;62.41;35.33;74.69;;
72160;Laerm;60045;51.792;10.938;2023-04-15T11:13:20;62.95;35.70;78.09;;
72160;Laerm;60045;51.792;10.938;2023-04-15T11:15:47;59.73;32.63;75.25;;
72160;Laerm;60045;51.792;10.938;2023-04-15T11:18:16;59.71;34.07;72.23;;
72160;Laerm;60045;51.792;10.938;2023-04-15T11:20:43;59.58;36.36;71.87;;
72160;Laerm;60045;51.792;10.938;2023-04-15T11:23:09;60.16;37.52;73.60;;
72160;Laerm;60045;51.792;10.938;2023-04-15T11:25:37;58.13;33.11;74.27;;
72160;Laerm;60045;51.792;10.938;2023-04-15T11:28:04;58.16;31.55;72.71;;
72160;Laerm;60045;51.792;10.938;2023-04-15T11:30:32;62.21;36.69;73.51;;
72160;Laerm;60045;51.792;10.938;2023-04-15T11:32:59;60.62;38.13;71.13;;
72160;Laerm;60045;51.792;10.938;2023-04-15T11:35:26;60.33;35.49;73.76;;
72160;Laerm;60045;51.792;10.938;2023-04-15T11:37:52;60.03;35.48;73.56;;
72160;Laerm;60045;51.792;10.938;2023-04-15T11:40:21;60.94;34.42;74.40;;
72160;Laerm;60045;51.792;10.938;2023-04-15T11:45:48;60.94;34.33;75.37;;
72160;Laerm;60045;51.792;10.938;2023-04-15T11:48:15;60.48;34.53;75.27;;
72160;Laerm;60045;51.792;10.938;2023-04-15T11:50:41;58.40;32.16;73.06;;
72160;Laerm;60045;51.792;10.938;2023-04-15T11:53:08;63.25;36.01;77.62;;
72160;Laerm;60045;51.792;10.938;2023-04-15T11:55:41;56.66;34.89;71.54;;
72160;Laerm;60045;51.792;10.938;2023-04-15T11:58:09;58.90;40.62;73.48;;
72160;Laerm;60045;51.792;10.938;2023-04-15T12:00:36;60.31;40.64;86.01;;
72160;Laerm;60045;51.792;10.938;2023-04-15T12:03:13;63.94;34.47;91.55;;
72160;Laerm;60045;51.792;10.938;2023-04-15T12:08:20;60.50;34.40;77.36;;
72160;Laerm;60045;51.792;10.938;2023-04-15T12:10:46;58.09;34.77;71.94;;
72160;Laerm;60045;51.792;10.938;2023-04-15T12:13:13;62.98;39.41;75.12;;
72160;Laerm;60045;51.792;10.938;2023-04-15T12:15:40;62.48;37.72;73.99;;
72160;Laerm;60045;51.792;10.938;2023-04-15T12:18:06;62.22;36.38;75.51;;
72160;Laerm;60045;51.792;10.938;2023-04-15T12:20:44;61.78;33.52;74.55;;
72160;Laerm;60045;51.792;10.938;2023-04-15T12:23:11;60.62;34.93;73.77;;
72160;Laerm;60045;51.792;10.938;2023-04-15T12:25:37;60.67;34.06;75.25;;
72160;Laerm;60045;51.792;10.938;2023-04-15T12:28:09;60.48;34.27;75.54;;
72160;Laerm;60045;51.792;10.938;2023-04-15T12:30:35;60.72;34.93;74.26;;
72160;Laerm;60045;51.792;10.938;2023-04-15T12:33:02;67.01;35.20;84.04;;
72160;Laerm;60045;51.792;10.938;2023-04-15T12:35:28;63.42;35.10;78.51;;
72160;Laerm;60045;51.792;10.938;2023-04-15T12:37:56;58.25;34.26;72.14;;
72160;Laerm;60045;51.792;10.938;2023-04-15T12:40:22;59.12;33.32;74.57;;
72160;Laerm;60045;51.792;10.938;2023-04-15T12:42:48;58.62;32.63;73.02;;
72160;Laerm;60045;51.792;10.938;2023-04-15T12:45:15;59.45;36.22;75.98;;
72160;Laerm;60045;51.792;10.938;2023-04-15T12:47:41;62.11;37.36;75.45;;
72160;Laerm;60045;51.792;10.938;2023-04-15T12:50:07;61.22;36.77;74.37;;
72160;Laerm;60045;51.792;10.938;2023-04-15T12:52:33;63.09;37.53;75.20;;
72160;Laerm;60045;51.792;10.938;2023-04-15T12:55:01;62.21;38.08;73.05;;
72160;Laerm;60045;51.792;10.938;2023-04-15T12:57:27;63.38;37.48;76.18;;
72160;Laerm;60045;51.792;10.938;2023-04-15T12:59:53;63.69;38.37;77.15;;
72160;Laerm;60045;51.792;10.938;2023-04-15T13:02:20;53.13;39.02;69.91;;
72160;Laerm;60045;51.792;10.938;2023-04-15T13:04:49;62.05;38.03;76.22;;
72160;Laerm;60045;51.792;10.938;2023-04-15T13:07:15;62.33;37.56;75.33;;
72160;Laerm;60045;51.792;10.938;2023-04-15T13:09:41;64.01;41.29;77.69;;
72160;Laerm;60045;51.792;10.938;2023-04-15T13:12:09;67.49;41.18;83.92;;
72160;Laerm;60045;51.792;10.938;2023-04-15T13:14:37;63.02;42.32;74.71;;
72160;Laerm;60045;51.792;10.938;2023-04-15T13:17:03;59.44;36.46;72.51;;
72160;Laerm;60045;51.792;10.938;2023-04-15T13:19:34;63.13;40.49;77.85;;
72160;Laerm;60045;51.792;10.938;2023-04-15T13:22:00;64.66;42.53;78.79;;
72160;Laerm;60045;51.792;10.938;2023-04-15T13:24:27;61.17;41.13;75.76;;
72160;Laerm;60045;51.792;10.938;2023-04-15T13:26:53;57.71;41.45;73.66;;
72160;Laerm;60045;51.792;10.938;2023-04-15T13:29:21;64.68;42.54;79.13;;
72160;Laerm;60045;51.792;10.938;2023-04-15T13:31:47;63.16;41.38;75.57;;
72160;Laerm;60045;51.792;10.938;2023-04-15T13:34:13;61.38;39.52;74.14;;
72160;Laerm;60045;51.792;10.938;2023-04-15T13:36:40;61.66;42.21;73.81;;
72160;Laerm;60045;51.792;10.938;2023-04-15T13:39:06;66.34;43.68;79.03;;